sensor_id;sensor_type;location;lat;lon;timestamp;temperature;humidity
34434;DHT22;34290;48.562;13.384;2023-03-13T00:00:26;2.90;99.90
34434;DHT22;34290;48.562;13.384;2023-03-13T00:02:53;2.90;99.90
34434;DHT22;34290;48.562;13.384;2023-03-13T00:05:20;2.90;99.90
34434;DHT22;34290;48.562;13.384;2023-03-13T00:07:47;2.90;99.90
34434;DHT22;34290;48.562;13.384;2023-03-13T00:10:14;2.80;99.90
34434;DHT22;34290;48.562;13.384;2023-03-13T00:12:42;2.80;99.90
34434;DHT22;34290;48.562;13.384;2023-03-13T00:15:10;2.80;99.90
34434;DHT22;34290;48.562;13.384;2023-03-13T00:17:37;2.80;99.90
34434;DHT22;34290;48.562;13.384;2023-03-13T00:20:05;2.80;99.90
34434;DHT22;34290;48.562;13.384;2023-03-13T00:22:33;2.80;99.90
34434;DHT22;34290;48.562;13.384;2023-03-13T00:27:31;2.90;99.90
34434;DHT22;34290;48.562;13.384;2023-03-13T00:30:00;2.80;99.90
34434;DHT22;34290;48.562;13.384;2023-03-13T00:32:27;2.80;99.90
34434;DHT22;34290;48.562;13.384;2023-03-13T00:34:54;2.80;99.90
34434;DHT22;34290;48.562;13.384;2023-03-13T00:37:21;2.80;99.90
34434;DHT22;34290;48.562;13.384;2023-03-13T00:39:48;2.80;99.90
34434;DHT22;34290;48.562;13.384;2023-03-13T00:42:15;2.80;99.90
34434;DHT22;34290;48.562;13.384;2023-03-13T00:44:42;2.70;99.90
34434;DHT22;34290;48.562;13.384;2023-03-13T00:47:10;2.70;99.90
34434;DHT22;34290;48.562;13.384;2023-03-13T00:52:05;2.70;99.90
34434;DHT22;34290;48.562;13.384;2023-03-13T00:54:32;2.60;99.90
34434;DHT22;34290;48.562;13.384;2023-03-13T00:56:59;2.60;99.90
34434;DHT22;34290;48.562;13.384;2023-03-13T00:59:26;2.50;99.90
34434;DHT22;34290;48.562;13.384;2023-03-13T01:01:52;2.50;99.90
34434;DHT22;34290;48.562;13.384;2023-03-13T01:04:21;3.20;99.90
34434;DHT22;34290;48.562;13.384;2023-03-13T01:06:48;2.40;99.90
34434;DHT22;34290;48.562;13.384;2023-03-13T01:09:15;2.40;99.90
34434;DHT22;34290;48.562;13.384;2023-03-13T01:11:43;2.40;99.90
34434;DHT22;34290;48.562;13.384;2023-03-13T01:14:12;2.40;99.90
34434;DHT22;34290;48.562;13.384;2023-03-13T01:19:10;2.30;99.90
34434;DHT22;34290;48.562;13.384;2023-03-13T01:21:38;2.20;99.90
34434;DHT22;34290;48.562;13.384;2023-03-13T01:24:06;2.20;99.90
34434;DHT22;34290;48.562;13.384;2023-03-13T01:26:33;2.10;99.90
34434;DHT22;34290;48.562;13.384;2023-03-13T01:31:28;2.10;99.90
34434;DHT22;34290;48.562;13.384;2023-03-13T01:33:57;2.10;99.90
34434;DHT22;34290;48.562;13.384;2023-03-13T01:38:56;2.00;99.90
34434;DHT22;34290;48.562;13.384;2023-03-13T01:41:23;2.00;99.90
34434;DHT22;34290;48.562;13.384;2023-03-13T01:43:51;1.90;99.90
34434;DHT22;34290;48.562;13.384;2023-03-13T01:46:21;1.90;99.90
34434;DHT22;34290;48.562;13.384;2023-03-13T01:48:51;2.00;99.90
34434;DHT22;34290;48.562;13.384;2023-03-13T01:51:23;1.90;99.90
34434;DHT22;34290;48.562;13.384;2023-03-13T01:53:57;1.80;99.90
34434;DHT22;34290;48.562;13.384;2023-03-13T01:56:30;1.80;99.90
34434;DHT22;34290;48.562;13.384;2023-03-13T01:58:59;1.70;99.90
34434;DHT22;34290;48.562;13.384;2023-03-13T02:06:23;1.60;99.90
34434;DHT22;34290;48.562;13.384;2023-03-13T02:16:26;1.50;99.90
34434;DHT22;34290;48.562;13.384;2023-03-13T02:21:34;1.40;99.90
34434;DHT22;34290;48.562;13.384;2023-03-13T02:24:08;1.40;99.90
34434;DHT22;34290;48.562;13.384;2023-03-13T02:34:10;1.20;99.90
34434;DHT22;34290;48.562;13.384;2023-03-13T02:41:33;1.00;99.90
34434;DHT22;34290;48.562;13.384;2023-03-13T02:44:02;1.10;99.90
34434;DHT22;34290;48.562;13.384;2023-03-13T02:51:28;0.90;99.90
34434;DHT22;34290;48.562;13.384;2023-03-13T02:53:59;0.90;99.90
34434;DHT22;34290;48.562;13.384;2023-03-13T02:58:54;0.80;99.90
34434;DHT22;34290;48.562;13.384;2023-03-13T03:01:22;0.80;99.90
34434;DHT22;34290;48.562;13.384;2023-03-13T03:06:16;0.70;99.90
34434;DHT22;34290;48.562;13.384;2023-03-13T03:11:11;0.60;99.90
34434;DHT22;34290;48.562;13.384;2023-03-13T03:13:38;0.70;99.90
34434;DHT22;34290;48.562;13.384;2023-03-13T03:16:06;0.70;99.90
34434;DHT22;34290;48.562;13.384;2023-03-13T03:18:35;0.80;99.90
34434;DHT22;34290;48.562;13.384;2023-03-13T03:23:31;0.90;99.90
34434;DHT22;34290;48.562;13.384;2023-03-13T03:25:58;0.90;99.90
34434;DHT22;34290;48.562;13.384;2023-03-13T03:30:52;0.70;99.90
34434;DHT22;34290;48.562;13.384;2023-03-13T03:33:20;0.70;99.90
34434;DHT22;34290;48.562;13.384;2023-03-13T03:35:48;0.60;99.90
34434;DHT22;34290;48.562;13.384;2023-03-13T03:38:15;0.60;99.90
34434;DHT22;34290;48.562;13.384;2023-03-13T03:43:10;0.50;99.90
34434;DHT22;34290;48.562;13.384;2023-03-13T03:50:31;0.60;99.90
34434;DHT22;34290;48.562;13.384;2023-03-13T03:53:00;0.60;99.90
34434;DHT22;34290;48.562;13.384;2023-03-13T03:57:54;0.60;99.90
34434;DHT22;34290;48.562;13.384;2023-03-13T04:02:48;0.60;99.90
34434;DHT22;34290;48.562;13.384;2023-03-13T04:05:15;0.40;99.90
34434;DHT22;34290;48.562;13.384;2023-03-13T04:15:07;0.10;99.90
34434;DHT22;34290;48.562;13.384;2023-03-13T04:17:34;0.10;99.90
34434;DHT22;34290;48.562;13.384;2023-03-13T04:22:29;0.10;99.90
34434;DHT22;34290;48.562;13.384;2023-03-13T04:24:56;0.00;99.90
34434;DHT22;34290;48.562;13.384;2023-03-13T04:27:24;0.00;99.90
34434;DHT22;34290;48.562;13.384;2023-03-13T04:29:51;0.00;99.90
34434;DHT22;34290;48.562;13.384;2023-03-13T04:32:18;-0.10;99.90
34434;DHT22;34290;48.562;13.384;2023-03-13T04:37:13;-0.10;99.90
34434;DHT22;34290;48.562;13.384;2023-03-13T04:39:40;-0.10;99.90
34434;DHT22;34290;48.562;13.384;2023-03-13T04:42:08;-0.10;99.90
34434;DHT22;34290;48.562;13.384;2023-03-13T04:44:36;0.00;99.90
34434;DHT22;34290;48.562;13.384;2023-03-13T04:47:04;0.20;99.90
34434;DHT22;34290;48.562;13.384;2023-03-13T04:49:31;0.30;99.90
34434;DHT22;34290;48.562;13.384;2023-03-13T04:51:58;0.30;99.90
34434;DHT22;34290;48.562;13.384;2023-03-13T04:56:52;0.40;99.90
34434;DHT22;34290;48.562;13.384;2023-03-13T05:01:47;0.20;99.90
34434;DHT22;34290;48.562;13.384;2023-03-13T05:11:36;0.20;99.90
34434;DHT22;34290;48.562;13.384;2023-03-13T05:14:04;0.10;99.90
34434;DHT22;34290;48.562;13.384;2023-03-13T05:16:33;0.00;99.90
34434;DHT22;34290;48.562;13.384;2023-03-13T05:19:02;0.00;99.90
34434;DHT22;34290;48.562;13.384;2023-03-13T05:21:29;0.00;99.90
34434;DHT22;34290;48.562;13.384;2023-03-13T05:23:56;0.10;99.90
34434;DHT22;34290;48.562;13.384;2023-03-13T05:26:23;0.10;99.90
34434;DHT22;34290;48.562;13.384;2023-03-13T05:31:17;0.10;99.90
34434;DHT22;34290;48.562;13.384;2023-03-13T05:36:13;0.00;99.90
34434;DHT22;34290;48.562;13.384;2023-03-13T05:38:40;0.00;99.90
34434;DHT22;34290;48.562;13.384;2023-03-13T05:43:34;0.10;99.90
34434;DHT22;34290;48.562;13.384;2023-03-13T05:46:01;0.10;99.90
34434;DHT22;34290;48.562;13.384;2023-03-13T05:48:28;0.10;99.90
34434;DHT22;34290;48.562;13.384;2023-03-13T05:50:55;0.10;99.90
34434;DHT22;34290;48.562;13.384;2023-03-13T05:53:23;0.10;99.90
34434;DHT22;34290;48.562;13.384;2023-03-13T05:58:17;0.20;99.90
34434;DHT22;34290;48.562;13.384;2023-03-13T06:00:44;0.20;99.90
34434;DHT22;34290;48.562;13.384;2023-03-13T06:03:11;0.30;99.90
34434;DHT22;34290;48.562;13.384;2023-03-13T06:08:05;0.50;99.90
34434;DHT22;34290;48.562;13.384;2023-03-13T06:10:34;0.60;99.90
34434;DHT22;34290;48.562;13.384;2023-03-13T06:13:01;0.70;99.90
34434;DHT22;34290;48.562;13.384;2023-03-13T06:15:28;0.80;99.90
34434;DHT22;34290;48.562;13.384;2023-03-13T06:17:55;0.80;99.90
34434;DHT22;34290;48.562;13.384;2023-03-13T06:20:22;0.90;99.90
34434;DHT22;34290;48.562;13.384;2023-03-13T06:22:49;0.70;99.90
34434;DHT22;34290;48.562;13.384;2023-03-13T06:27:44;0.80;99.90
34434;DHT22;34290;48.562;13.384;2023-03-13T06:30:12;1.20;99.90
34434;DHT22;34290;48.562;13.384;2023-03-13T06:32:39;1.90;99.90
34434;DHT22;34290;48.562;13.384;2023-03-13T06:35:06;2.40;99.90
34434;DHT22;34290;48.562;13.384;2023-03-13T06:37:33;2.30;99.90
34434;DHT22;34290;48.562;13.384;2023-03-13T06:40:00;2.30;99.90
34434;DHT22;34290;48.562;13.384;2023-03-13T06:42:28;2.30;99.90
34434;DHT22;34290;48.562;13.384;2023-03-13T06:44:57;2.20;99.90
34434;DHT22;34290;48.562;13.384;2023-03-13T06:47:24;2.20;99.90
34434;DHT22;34290;48.562;13.384;2023-03-13T06:49:51;2.20;99.90
34434;DHT22;34290;48.562;13.384;2023-03-13T06:52:18;2.40;99.90
34434;DHT22;34290;48.562;13.384;2023-03-13T06:57:12;2.40;99.90
34434;DHT22;34290;48.562;13.384;2023-03-13T07:02:08;2.50;99.90
34434;DHT22;34290;48.562;13.384;2023-03-13T07:04:35;2.50;99.90
34434;DHT22;34290;48.562;13.384;2023-03-13T07:07:02;2.70;99.90
34434;DHT22;34290;48.562;13.384;2023-03-13T07:09:30;2.90;99.90
34434;DHT22;34290;48.562;13.384;2023-03-13T07:11:57;3.20;99.90
34434;DHT22;34290;48.562;13.384;2023-03-13T07:14:24;3.60;99.90
34434;DHT22;34290;48.562;13.384;2023-03-13T07:19:20;4.70;99.90
34434;DHT22;34290;48.562;13.384;2023-03-13T07:21:47;5.30;99.90
34434;DHT22;34290;48.562;13.384;2023-03-13T07:24:14;7.30;99.90
34434;DHT22;34290;48.562;13.384;2023-03-13T07:26:41;9.80;99.90
34434;DHT22;34290;48.562;13.384;2023-03-13T07:29:08;11.50;99.90
34434;DHT22;34290;48.562;13.384;2023-03-13T07:31:35;11.90;99.90
34434;DHT22;34290;48.562;13.384;2023-03-13T07:34:03;10.90;99.90
34434;DHT22;34290;48.562;13.384;2023-03-13T07:36:32;10.10;99.90
34434;DHT22;34290;48.562;13.384;2023-03-13T07:41:27;8.50;99.90
34434;DHT22;34290;48.562;13.384;2023-03-13T07:46:21;6.60;99.90
34434;DHT22;34290;48.562;13.384;2023-03-13T07:48:49;5.80;99.90
34434;DHT22;34290;48.562;13.384;2023-03-13T07:51:21;6.00;99.90
34434;DHT22;34290;48.562;13.384;2023-03-13T07:53:50;6.30;99.90
34434;DHT22;34290;48.562;13.384;2023-03-13T07:56:18;6.60;99.90
34434;DHT22;34290;48.562;13.384;2023-03-13T07:58:45;6.70;99.90
34434;DHT22;34290;48.562;13.384;2023-03-13T08:01:14;6.60;99.90
34434;DHT22;34290;48.562;13.384;2023-03-13T08:03:42;6.50;99.90
34434;DHT22;34290;48.562;13.384;2023-03-13T08:06:11;6.00;99.90
34434;DHT22;34290;48.562;13.384;2023-03-13T08:08:39;5.90;99.90
34434;DHT22;34290;48.562;13.384;2023-03-13T08:11:09;6.00;99.90
34434;DHT22;34290;48.562;13.384;2023-03-13T08:13:37;6.10;99.90
34434;DHT22;34290;48.562;13.384;2023-03-13T08:16:05;6.20;99.90
34434;DHT22;34290;48.562;13.384;2023-03-13T08:21:02;6.00;99.90
34434;DHT22;34290;48.562;13.384;2023-03-13T08:23:29;6.00;99.90
34434;DHT22;34290;48.562;13.384;2023-03-13T08:26:01;5.80;99.90
34434;DHT22;34290;48.562;13.384;2023-03-13T08:28:30;5.90;99.90
34434;DHT22;34290;48.562;13.384;2023-03-13T08:30:57;5.90;99.90
34434;DHT22;34290;48.562;13.384;2023-03-13T08:35:51;6.00;99.90
34434;DHT22;34290;48.562;13.384;2023-03-13T08:40:45;5.80;99.90
34434;DHT22;34290;48.562;13.384;2023-03-13T08:45:41;5.90;99.90
34434;DHT22;34290;48.562;13.384;2023-03-13T08:48:08;5.80;99.90
34434;DHT22;34290;48.562;13.384;2023-03-13T08:50:34;5.80;99.90
34434;DHT22;34290;48.562;13.384;2023-03-13T08:53:01;5.70;99.90
34434;DHT22;34290;48.562;13.384;2023-03-13T08:55:29;5.80;99.90
34434;DHT22;34290;48.562;13.384;2023-03-13T08:57:56;5.80;99.90
34434;DHT22;34290;48.562;13.384;2023-03-13T09:00:23;5.80;99.90
34434;DHT22;34290;48.562;13.384;2023-03-13T09:02:52;5.80;99.90
34434;DHT22;34290;48.562;13.384;2023-03-13T09:07:46;5.80;99.90
34434;DHT22;34290;48.562;13.384;2023-03-13T09:12:41;5.80;99.90
34434;DHT22;34290;48.562;13.384;2023-03-13T09:15:11;5.90;99.90
34434;DHT22;34290;48.562;13.384;2023-03-13T09:17:38;5.90;99.90
34434;DHT22;34290;48.562;13.384;2023-03-13T09:20:08;5.90;99.90
34434;DHT22;34290;48.562;13.384;2023-03-13T09:22:35;5.90;99.90
34434;DHT22;34290;48.562;13.384;2023-03-13T09:25:03;6.00;99.90
34434;DHT22;34290;48.562;13.384;2023-03-13T09:27:30;6.10;99.90
34434;DHT22;34290;48.562;13.384;2023-03-13T09:29:57;6.10;99.90
34434;DHT22;34290;48.562;13.384;2023-03-13T09:32:24;6.10;99.90
34434;DHT22;34290;48.562;13.384;2023-03-13T09:34:51;6.20;99.90
34434;DHT22;34290;48.562;13.384;2023-03-13T09:37:19;6.20;99.90
34434;DHT22;34290;48.562;13.384;2023-03-13T09:42:16;6.30;99.90
34434;DHT22;34290;48.562;13.384;2023-03-13T09:44:47;6.20;99.90
34434;DHT22;34290;48.562;13.384;2023-03-13T09:47:20;6.30;99.90
34434;DHT22;34290;48.562;13.384;2023-03-13T09:49:50;6.20;99.90
34434;DHT22;34290;48.562;13.384;2023-03-13T09:52:22;6.20;99.90
34434;DHT22;34290;48.562;13.384;2023-03-13T09:54:53;6.20;99.90
34434;DHT22;34290;48.562;13.384;2023-03-13T09:57:30;6.10;99.90
34434;DHT22;34290;48.562;13.384;2023-03-13T10:00:00;6.20;99.90
34434;DHT22;34290;48.562;13.384;2023-03-13T10:05:04;6.30;99.90
34434;DHT22;34290;48.562;13.384;2023-03-13T10:07:34;6.30;99.90
34434;DHT22;34290;48.562;13.384;2023-03-13T10:10:01;6.60;99.90
34434;DHT22;34290;48.562;13.384;2023-03-13T10:25:20;6.70;99.90
34434;DHT22;34290;48.562;13.384;2023-03-13T10:27:50;6.80;99.90
34434;DHT22;34290;48.562;13.384;2023-03-13T10:30:22;6.80;99.90
34434;DHT22;34290;48.562;13.384;2023-03-13T10:35:21;7.00;99.90
34434;DHT22;34290;48.562;13.384;2023-03-13T10:38:00;7.10;99.90
34434;DHT22;34290;48.562;13.384;2023-03-13T10:40:28;7.30;99.90
34434;DHT22;34290;48.562;13.384;2023-03-13T10:43:00;7.20;99.90
34434;DHT22;34290;48.562;13.384;2023-03-13T10:45:32;7.30;99.90
34434;DHT22;34290;48.562;13.384;2023-03-13T10:48:02;7.30;99.90
34434;DHT22;34290;48.562;13.384;2023-03-13T10:53:20;7.60;99.90
34434;DHT22;34290;48.562;13.384;2023-03-13T10:55:47;7.70;99.90
34434;DHT22;34290;48.562;13.384;2023-03-13T10:58:18;7.80;99.90
34434;DHT22;34290;48.562;13.384;2023-03-13T11:00:46;8.00;99.90
34434;DHT22;34290;48.562;13.384;2023-03-13T11:03:16;8.20;99.90
34434;DHT22;34290;48.562;13.384;2023-03-13T11:05:45;8.40;99.90
34434;DHT22;34290;48.562;13.384;2023-03-13T11:08:22;8.60;99.90
34434;DHT22;34290;48.562;13.384;2023-03-13T11:10:52;8.50;99.90
34434;DHT22;34290;48.562;13.384;2023-03-13T11:13:33;8.70;99.90
34434;DHT22;34290;48.562;13.384;2023-03-13T11:16:10;8.80;99.90
34434;DHT22;34290;48.562;13.384;2023-03-13T11:18:42;9.00;99.90
34434;DHT22;34290;48.562;13.384;2023-03-13T11:21:18;9.10;99.90
34434;DHT22;34290;48.562;13.384;2023-03-13T11:23:56;9.40;99.90
34434;DHT22;34290;48.562;13.384;2023-03-13T11:26:32;9.80;99.90
34434;DHT22;34290;48.562;13.384;2023-03-13T11:29:05;10.10;99.90
34434;DHT22;34290;48.562;13.384;2023-03-13T11:31:39;10.10;99.90
34434;DHT22;34290;48.562;13.384;2023-03-13T11:34:14;10.60;99.90
34434;DHT22;34290;48.562;13.384;2023-03-13T11:36:50;10.80;99.90
34434;DHT22;34290;48.562;13.384;2023-03-13T11:39:46;10.60;99.90
34434;DHT22;34290;48.562;13.384;2023-03-13T11:42:30;10.70;99.90
34434;DHT22;34290;48.562;13.384;2023-03-13T11:45:05;10.30;99.90
34434;DHT22;34290;48.562;13.384;2023-03-13T11:55:32;10.20;99.90
34434;DHT22;34290;48.562;13.384;2023-03-13T11:58:20;10.10;99.90
34434;DHT22;34290;48.562;13.384;2023-03-13T12:00:56;10.20;99.90
34434;DHT22;34290;48.562;13.384;2023-03-13T12:03:32;10.30;99.90
34434;DHT22;34290;48.562;13.384;2023-03-13T12:06:01;10.40;99.90
34434;DHT22;34290;48.562;13.384;2023-03-13T12:08:34;10.50;99.90
34434;DHT22;34290;48.562;13.384;2023-03-13T12:11:11;10.50;99.90
34434;DHT22;34290;48.562;13.384;2023-03-13T12:13:41;10.50;99.90
34434;DHT22;34290;48.562;13.384;2023-03-13T12:16:13;10.40;99.90
34434;DHT22;34290;48.562;13.384;2023-03-13T12:18:43;10.40;99.90
34434;DHT22;34290;48.562;13.384;2023-03-13T12:21:16;12.00;99.90
34434;DHT22;34290;48.562;13.384;2023-03-13T12:23:49;10.50;99.90
34434;DHT22;34290;48.562;13.384;2023-03-13T12:26:20;10.40;99.90
34434;DHT22;34290;48.562;13.384;2023-03-13T12:28:59;10.30;99.90
34434;DHT22;34290;48.562;13.384;2023-03-13T12:31:32;10.30;99.90
34434;DHT22;34290;48.562;13.384;2023-03-13T12:34:11;10.30;99.90
34434;DHT22;34290;48.562;13.384;2023-03-13T12:36:41;10.40;99.90
34434;DHT22;34290;48.562;13.384;2023-03-13T12:39:19;10.60;99.90
34434;DHT22;34290;48.562;13.384;2023-03-13T12:41:56;11.00;99.90
34434;DHT22;34290;48.562;13.384;2023-03-13T12:44:26;11.30;99.90
34434;DHT22;34290;48.562;13.384;2023-03-13T12:49:44;12.30;99.90
34434;DHT22;34290;48.562;13.384;2023-03-13T12:52:45;12.40;99.90
34434;DHT22;34290;48.562;13.384;2023-03-13T12:58:27;13.00;99.90
34434;DHT22;34290;48.562;13.384;2023-03-13T13:00:55;13.00;99.90
34434;DHT22;34290;48.562;13.384;2023-03-13T13:03:31;12.90;99.90
34434;DHT22;34290;48.562;13.384;2023-03-13T13:06:06;12.70;99.90
34434;DHT22;34290;48.562;13.384;2023-03-13T13:08:39;12.70;99.90
34434;DHT22;34290;48.562;13.384;2023-03-13T13:11:39;12.70;99.90
34434;DHT22;34290;48.562;13.384;2023-03-13T13:17:27;12.80;99.90
34434;DHT22;34290;48.562;13.384;2023-03-13T13:19:56;13.00;99.90
34434;DHT22;34290;48.562;13.384;2023-03-13T13:22:51;13.20;99.90
34434;DHT22;34290;48.562;13.384;2023-03-13T13:25:29;13.40;99.90
34434;DHT22;34290;48.562;13.384;2023-03-13T13:28:11;13.60;99.90
34434;DHT22;34290;48.562;13.384;2023-03-13T13:30:46;13.30;99.90
34434;DHT22;34290;48.562;13.384;2023-03-13T13:33:37;13.30;99.90
34434;DHT22;34290;48.562;13.384;2023-03-13T13:36:30;13.80;99.90
34434;DHT22;34290;48.562;13.384;2023-03-13T13:38:57;13.50;99.90
34434;DHT22;34290;48.562;13.384;2023-03-13T13:41:35;13.50;99.90
34434;DHT22;34290;48.562;13.384;2023-03-13T13:44:24;13.20;99.90
34434;DHT22;34290;48.562;13.384;2023-03-13T13:46:52;13.10;99.90
34434;DHT22;34290;48.562;13.384;2023-03-13T13:49:22;13.10;99.90
34434;DHT22;34290;48.562;13.384;2023-03-13T13:52:18;13.30;99.90
34434;DHT22;34290;48.562;13.384;2023-03-13T13:54:54;13.50;99.90
34434;DHT22;34290;48.562;13.384;2023-03-13T13:57:23;13.60;99.90
34434;DHT22;34290;48.562;13.384;2023-03-13T13:59:53;13.60;99.90
34434;DHT22;34290;48.562;13.384;2023-03-13T14:02:23;13.60;99.90
34434;DHT22;34290;48.562;13.384;2023-03-13T14:05:07;13.70;99.90
34434;DHT22;34290;48.562;13.384;2023-03-13T14:07:54;13.90;99.90
34434;DHT22;34290;48.562;13.384;2023-03-13T14:10:36;14.10;99.90
34434;DHT22;34290;48.562;13.384;2023-03-13T14:13:11;14.40;99.90
34434;DHT22;34290;48.562;13.384;2023-03-13T14:15:41;14.30;99.90
34434;DHT22;34290;48.562;13.384;2023-03-13T14:18:10;14.50;99.90
34434;DHT22;34290;48.562;13.384;2023-03-13T14:20:56;14.40;99.90
34434;DHT22;34290;48.562;13.384;2023-03-13T14:23:35;14.00;99.90
34434;DHT22;34290;48.562;13.384;2023-03-13T14:26:11;14.00;99.90
34434;DHT22;34290;48.562;13.384;2023-03-13T14:28:40;13.90;99.90
34434;DHT22;34290;48.562;13.384;2023-03-13T14:31:08;14.00;99.90
34434;DHT22;34290;48.562;13.384;2023-03-13T14:33:36;14.20;99.90
34434;DHT22;34290;48.562;13.384;2023-03-13T14:36:06;14.40;99.90
34434;DHT22;34290;48.562;13.384;2023-03-13T14:38:34;14.40;99.90
34434;DHT22;34290;48.562;13.384;2023-03-13T14:41:01;14.30;99.90
34434;DHT22;34290;48.562;13.384;2023-03-13T14:43:32;14.30;99.90
34434;DHT22;34290;48.562;13.384;2023-03-13T14:46:12;14.30;99.90
34434;DHT22;34290;48.562;13.384;2023-03-13T14:51:14;14.30;99.90
34434;DHT22;34290;48.562;13.384;2023-03-13T14:53:53;14.20;99.90
34434;DHT22;34290;48.562;13.384;2023-03-13T14:56:30;14.10;99.90
34434;DHT22;34290;48.562;13.384;2023-03-13T14:59:06;14.10;99.90
34434;DHT22;34290;48.562;13.384;2023-03-13T15:01:33;14.10;99.90
34434;DHT22;34290;48.562;13.384;2023-03-13T15:06:29;14.10;99.90
34434;DHT22;34290;48.562;13.384;2023-03-13T15:09:19;14.10;99.90
34434;DHT22;34290;48.562;13.384;2023-03-13T15:11:55;13.90;99.90
34434;DHT22;34290;48.562;13.384;2023-03-13T15:14:32;13.90;99.90
34434;DHT22;34290;48.562;13.384;2023-03-13T15:19:26;14.00;99.90
34434;DHT22;34290;48.562;13.384;2023-03-13T15:21:55;14.00;99.90
34434;DHT22;34290;48.562;13.384;2023-03-13T15:24:22;14.00;99.90
34434;DHT22;34290;48.562;13.384;2023-03-13T15:26:49;14.00;99.90
34434;DHT22;34290;48.562;13.384;2023-03-13T15:29:15;14.00;99.90
34434;DHT22;34290;48.562;13.384;2023-03-13T15:31:43;14.10;99.90
34434;DHT22;34290;48.562;13.384;2023-03-13T15:34:12;14.10;99.90
34434;DHT22;34290;48.562;13.384;2023-03-13T15:39:13;13.30;99.90
34434;DHT22;34290;48.562;13.384;2023-03-13T15:44:08;14.10;99.90
34434;DHT22;34290;48.562;13.384;2023-03-13T15:46:35;14.10;99.90
34434;DHT22;34290;48.562;13.384;2023-03-13T15:49:02;14.10;99.90
34434;DHT22;34290;48.562;13.384;2023-03-13T15:51:35;14.10;99.90
34434;DHT22;34290;48.562;13.384;2023-03-13T15:54:03;14.10;99.90
34434;DHT22;34290;48.562;13.384;2023-03-13T15:56:34;14.10;99.90
34434;DHT22;34290;48.562;13.384;2023-03-13T15:59:09;14.00;99.90
34434;DHT22;34290;48.562;13.384;2023-03-13T16:01:36;13.90;99.90
34434;DHT22;34290;48.562;13.384;2023-03-13T16:04:03;13.90;99.90
34434;DHT22;34290;48.562;13.384;2023-03-13T16:08:58;13.70;99.90
34434;DHT22;34290;48.562;13.384;2023-03-13T16:11:26;13.60;99.90
34434;DHT22;34290;48.562;13.384;2023-03-13T16:13:55;13.60;99.90
34434;DHT22;34290;48.562;13.384;2023-03-13T16:16:24;13.50;99.90
34434;DHT22;34290;48.562;13.384;2023-03-13T16:18:53;13.50;99.90
34434;DHT22;34290;48.562;13.384;2023-03-13T16:21:22;13.50;99.90
34434;DHT22;34290;48.562;13.384;2023-03-13T16:23:50;13.40;99.90
34434;DHT22;34290;48.562;13.384;2023-03-13T16:26:19;13.40;99.90
34434;DHT22;34290;48.562;13.384;2023-03-13T16:28:46;13.30;99.90
34434;DHT22;34290;48.562;13.384;2023-03-13T16:31:20;13.30;99.90
34434;DHT22;34290;48.562;13.384;2023-03-13T16:33:48;13.30;99.90
34434;DHT22;34290;48.562;13.384;2023-03-13T16:36:18;13.10;99.90
34434;DHT22;34290;48.562;13.384;2023-03-13T16:38:45;13.00;99.90
34434;DHT22;34290;48.562;13.384;2023-03-13T16:41:14;13.00;99.90
34434;DHT22;34290;48.562;13.384;2023-03-13T16:43:41;12.90;99.90
34434;DHT22;34290;48.562;13.384;2023-03-13T16:46:16;12.90;99.90
34434;DHT22;34290;48.562;13.384;2023-03-13T16:48:45;12.90;99.90
34434;DHT22;34290;48.562;13.384;2023-03-13T16:51:16;12.90;99.90
34434;DHT22;34290;48.562;13.384;2023-03-13T16:53:45;12.80;99.90
34434;DHT22;34290;48.562;13.384;2023-03-13T16:56:21;12.70;99.90
34434;DHT22;34290;48.562;13.384;2023-03-13T16:58:49;12.60;99.90
34434;DHT22;34290;48.562;13.384;2023-03-13T17:01:16;12.40;99.90
34434;DHT22;34290;48.562;13.384;2023-03-13T17:03:44;12.10;99.90
34434;DHT22;34290;48.562;13.384;2023-03-13T17:06:18;12.20;99.90
34434;DHT22;34290;48.562;13.384;2023-03-13T17:08:45;12.20;99.90
34434;DHT22;34290;48.562;13.384;2023-03-13T17:11:14;12.00;99.90
34434;DHT22;34290;48.562;13.384;2023-03-13T17:13:42;11.90;99.90
34434;DHT22;34290;48.562;13.384;2023-03-13T17:16:14;12.00;99.90
34434;DHT22;34290;48.562;13.384;2023-03-13T17:18:44;12.10;99.90
34434;DHT22;34290;48.562;13.384;2023-03-13T17:21:14;12.00;99.90
34434;DHT22;34290;48.562;13.384;2023-03-13T17:23:41;11.90;99.90
34434;DHT22;34290;48.562;13.384;2023-03-13T17:26:15;12.00;99.90
34434;DHT22;34290;48.562;13.384;2023-03-13T17:28:43;11.60;99.90
34434;DHT22;34290;48.562;13.384;2023-03-13T17:33:38;11.60;99.90
34434;DHT22;34290;48.562;13.384;2023-03-13T17:36:14;11.50;99.90
34434;DHT22;34290;48.562;13.384;2023-03-13T17:41:10;11.50;99.90
34434;DHT22;34290;48.562;13.384;2023-03-13T17:46:13;11.30;99.90
34434;DHT22;34290;48.562;13.384;2023-03-13T17:48:40;11.30;99.90
34434;DHT22;34290;48.562;13.384;2023-03-13T17:51:13;11.20;99.90
34434;DHT22;34290;48.562;13.384;2023-03-13T17:53:40;11.20;99.90
34434;DHT22;34290;48.562;13.384;2023-03-13T17:56:14;11.10;99.90
34434;DHT22;34290;48.562;13.384;2023-03-13T17:58:42;11.00;99.90
34434;DHT22;34290;48.562;13.384;2023-03-13T18:01:11;11.10;99.90
34434;DHT22;34290;48.562;13.384;2023-03-13T18:03:39;11.20;99.90
34434;DHT22;34290;48.562;13.384;2023-03-13T18:06:19;11.30;99.90
34434;DHT22;34290;48.562;13.384;2023-03-13T18:08:47;11.20;99.90
34434;DHT22;34290;48.562;13.384;2023-03-13T18:11:15;11.10;99.90
34434;DHT22;34290;48.562;13.384;2023-03-13T18:13:42;11.00;99.90
34434;DHT22;34290;48.562;13.384;2023-03-13T18:16:18;10.70;99.90
34434;DHT22;34290;48.562;13.384;2023-03-13T18:18:46;10.60;99.90
34434;DHT22;34290;48.562;13.384;2023-03-13T18:21:13;10.50;99.90
34434;DHT22;34290;48.562;13.384;2023-03-13T18:23:41;10.40;99.90
34434;DHT22;34290;48.562;13.384;2023-03-13T18:26:25;10.40;99.90
34434;DHT22;34290;48.562;13.384;2023-03-13T18:28:52;10.20;99.90
34434;DHT22;34290;48.562;13.384;2023-03-13T18:31:25;9.90;99.90
34434;DHT22;34290;48.562;13.384;2023-03-13T18:33:54;10.00;99.90
34434;DHT22;34290;48.562;13.384;2023-03-13T18:38:50;9.90;99.90
34434;DHT22;34290;48.562;13.384;2023-03-13T18:41:17;10.00;99.90
34434;DHT22;34290;48.562;13.384;2023-03-13T18:43:44;10.00;99.90
34434;DHT22;34290;48.562;13.384;2023-03-13T18:46:15;10.00;99.90
34434;DHT22;34290;48.562;13.384;2023-03-13T18:51:13;10.10;99.90
34434;DHT22;34290;48.562;13.384;2023-03-13T18:56:17;10.30;99.90
34434;DHT22;34290;48.562;13.384;2023-03-13T18:58:46;10.40;99.90
34434;DHT22;34290;48.562;13.384;2023-03-13T19:01:15;10.10;99.90
34434;DHT22;34290;48.562;13.384;2023-03-13T19:03:43;9.80;99.90
34434;DHT22;34290;48.562;13.384;2023-03-13T19:06:17;9.60;99.90
34434;DHT22;34290;48.562;13.384;2023-03-13T19:08:46;9.30;99.90